sensor_id;sensor_type;location;lat;lon;timestamp;P1;durP1;ratioP1;P2;durP2;ratioP2
20159;SDS011;50187;50.492;12.134;2022-11-15T00:00:30;5.60;;;5.03;;
20159;SDS011;50187;50.492;12.134;2022-11-15T00:03:35;6.00;;;5.40;;
20159;SDS011;50187;50.492;12.134;2022-11-15T00:06:39;6.30;;;5.80;;
20159;SDS011;50187;50.492;12.134;2022-11-15T00:09:43;5.87;;;5.37;;
20159;SDS011;50187;50.492;12.134;2022-11-15T00:12:48;6.10;;;5.60;;
20159;SDS011;50187;50.492;12.134;2022-11-15T00:15:53;6.00;;;5.40;;
20159;SDS011;50187;50.492;12.134;2022-11-15T00:19:01;6.53;;;6.03;;
20159;SDS011;50187;50.492;12.134;2022-11-15T00:22:05;5.70;;;5.20;;
20159;SDS011;50187;50.492;12.134;2022-11-15T00:25:09;4.93;;;4.43;;
20159;SDS011;50187;50.492;12.134;2022-11-15T00:28:13;6.07;;;5.50;;
20159;SDS011;50187;50.492;12.134;2022-11-15T00:31:17;5.73;;;5.23;;
20159;SDS011;50187;50.492;12.134;2022-11-15T00:34:21;5.60;;;5.20;;
20159;SDS011;50187;50.492;12.134;2022-11-15T00:37:25;5.20;;;4.80;;
20159;SDS011;50187;50.492;12.134;2022-11-15T00:40:29;5.10;;;4.60;;
20159;SDS011;50187;50.492;12.134;2022-11-15T00:43:34;5.83;;;5.33;;
20159;SDS011;50187;50.492;12.134;2022-11-15T00:46:39;5.37;;;4.87;;
20159;SDS011;50187;50.492;12.134;2022-11-15T00:49:43;5.57;;;4.97;;
20159;SDS011;50187;50.492;12.134;2022-11-15T00:52:46;5.30;;;4.90;;
20159;SDS011;50187;50.492;12.134;2022-11-15T00:55:51;5.33;;;4.93;;
20159;SDS011;50187;50.492;12.134;2022-11-15T00:58:55;5.53;;;5.13;;
20159;SDS011;50187;50.492;12.134;2022-11-15T01:01:59;4.87;;;4.47;;
20159;SDS011;50187;50.492;12.134;2022-11-15T01:05:03;5.17;;;4.77;;
20159;SDS011;50187;50.492;12.134;2022-11-15T01:08:12;5.43;;;5.03;;
20159;SDS011;50187;50.492;12.134;2022-11-15T01:11:17;5.43;;;4.97;;
20159;SDS011;50187;50.492;12.134;2022-11-15T01:14:21;5.50;;;5.10;;
20159;SDS011;50187;50.492;12.134;2022-11-15T01:17:28;5.37;;;4.87;;
20159;SDS011;50187;50.492;12.134;2022-11-15T01:20:32;5.57;;;5.17;;
20159;SDS011;50187;50.492;12.134;2022-11-15T01:23:36;5.77;;;4.90;;
20159;SDS011;50187;50.492;12.134;2022-11-15T01:26:41;4.93;;;4.53;;
20159;SDS011;50187;50.492;12.134;2022-11-15T01:29:45;5.20;;;4.70;;
20159;SDS011;50187;50.492;12.134;2022-11-15T01:32:48;4.90;;;4.50;;
20159;SDS011;50187;50.492;12.134;2022-11-15T01:35:52;5.33;;;4.93;;
20159;SDS011;50187;50.492;12.134;2022-11-15T01:38:58;5.17;;;4.70;;
20159;SDS011;50187;50.492;12.134;2022-11-15T01:42:03;4.80;;;4.40;;
20159;SDS011;50187;50.492;12.134;2022-11-15T01:45:11;5.07;;;4.67;;
20159;SDS011;50187;50.492;12.134;2022-11-15T01:48:18;5.10;;;4.63;;
20159;SDS011;50187;50.492;12.134;2022-11-15T01:51:22;4.80;;;4.40;;
20159;SDS011;50187;50.492;12.134;2022-11-15T01:54:30;5.20;;;4.70;;
20159;SDS011;50187;50.492;12.134;2022-11-15T01:57:34;5.27;;;4.87;;
20159;SDS011;50187;50.492;12.134;2022-11-15T02:00:38;5.30;;;4.90;;
20159;SDS011;50187;50.492;12.134;2022-11-15T02:03:49;4.43;;;4.13;;
20159;SDS011;50187;50.492;12.134;2022-11-15T02:06:59;4.97;;;4.57;;
20159;SDS011;50187;50.492;12.134;2022-11-15T02:10:13;4.40;;;4.10;;
20159;SDS011;50187;50.492;12.134;2022-11-15T02:13:21;4.47;;;4.17;;
20159;SDS011;50187;50.492;12.134;2022-11-15T02:36:56;5.07;;;4.67;;
20159;SDS011;50187;50.492;12.134;2022-11-15T02:40:11;4.77;;;4.37;;
20159;SDS011;50187;50.492;12.134;2022-11-15T02:43:36;4.40;;;4.10;;
20159;SDS011;50187;50.492;12.134;2022-11-15T02:47:01;4.53;;;4.13;;
20159;SDS011;50187;50.492;12.134;2022-11-15T02:50:19;4.70;;;4.30;;
20159;SDS011;50187;50.492;12.134;2022-11-15T02:53:25;4.37;;;4.07;;
20159;SDS011;50187;50.492;12.134;2022-11-15T02:56:29;4.77;;;4.37;;
20159;SDS011;50187;50.492;12.134;2022-11-15T03:06:14;4.73;;;4.37;;
20159;SDS011;50187;50.492;12.134;2022-11-15T03:09:35;5.03;;;4.63;;
20159;SDS011;50187;50.492;12.134;2022-11-15T03:12:46;4.13;;;3.83;;
20159;SDS011;50187;50.492;12.134;2022-11-15T03:16:01;4.43;;;4.13;;
20159;SDS011;50187;50.492;12.134;2022-11-15T03:23:08;4.23;;;3.93;;
20159;SDS011;50187;50.492;12.134;2022-11-15T03:26:14;4.33;;;4.03;;
20159;SDS011;50187;50.492;12.134;2022-11-15T03:29:24;4.40;;;4.10;;
20159;SDS011;50187;50.492;12.134;2022-11-15T03:32:41;4.83;;;4.47;;
20159;SDS011;50187;50.492;12.134;2022-11-15T03:35:49;4.20;;;3.90;;
20159;SDS011;50187;50.492;12.134;2022-11-15T03:38:56;4.13;;;3.80;;
20159;SDS011;50187;50.492;12.134;2022-11-15T03:45:27;4.53;;;4.13;;
20159;SDS011;50187;50.492;12.134;2022-11-15T03:48:49;4.47;;;4.17;;
20159;SDS011;50187;50.492;12.134;2022-11-15T03:51:58;4.47;;;4.13;;
20159;SDS011;50187;50.492;12.134;2022-11-15T03:55:03;4.57;;;4.27;;
20159;SDS011;50187;50.492;12.134;2022-11-15T03:58:09;4.50;;;4.10;;
20159;SDS011;50187;50.492;12.134;2022-11-15T04:01:13;4.87;;;4.47;;
20159;SDS011;50187;50.492;12.134;2022-11-15T04:04:18;4.37;;;4.07;;
20159;SDS011;50187;50.492;12.134;2022-11-15T04:07:21;4.30;;;4.00;;
20159;SDS011;50187;50.492;12.134;2022-11-15T04:10:25;3.57;;;3.37;;
20159;SDS011;50187;50.492;12.134;2022-11-15T04:13:29;4.00;;;3.70;;
20159;SDS011;50187;50.492;12.134;2022-11-15T04:16:34;4.17;;;3.87;;
20159;SDS011;50187;50.492;12.134;2022-11-15T04:19:45;4.10;;;3.80;;
20159;SDS011;50187;50.492;12.134;2022-11-15T04:26:34;4.17;;;3.87;;
20159;SDS011;50187;50.492;12.134;2022-11-15T04:29:38;4.27;;;3.97;;
20159;SDS011;50187;50.492;12.134;2022-11-15T04:32:42;4.37;;;4.07;;
20159;SDS011;50187;50.492;12.134;2022-11-15T04:35:46;4.17;;;3.87;;
20159;SDS011;50187;50.492;12.134;2022-11-15T04:39:10;4.57;;;4.17;;
20159;SDS011;50187;50.492;12.134;2022-11-15T04:42:14;4.20;;;3.90;;
20159;SDS011;50187;50.492;12.134;2022-11-15T04:45:18;4.30;;;4.00;;
20159;SDS011;50187;50.492;12.134;2022-11-15T04:48:22;4.07;;;3.77;;
20159;SDS011;50187;50.492;12.134;2022-11-15T04:51:26;3.50;;;3.23;;
20159;SDS011;50187;50.492;12.134;2022-11-15T04:54:30;4.37;;;4.00;;
20159;SDS011;50187;50.492;12.134;2022-11-15T04:57:34;4.10;;;3.80;;
20159;SDS011;50187;50.492;12.134;2022-11-15T05:00:38;4.00;;;3.70;;
20159;SDS011;50187;50.492;12.134;2022-11-15T05:03:43;3.83;;;3.53;;
20159;SDS011;50187;50.492;12.134;2022-11-15T05:07:06;3.40;;;3.10;;
20159;SDS011;50187;50.492;12.134;2022-11-15T05:10:11;4.17;;;3.87;;
20159;SDS011;50187;50.492;12.134;2022-11-15T05:13:15;3.40;;;3.20;;
20159;SDS011;50187;50.492;12.134;2022-11-15T05:16:19;3.20;;;3.00;;
20159;SDS011;50187;50.492;12.134;2022-11-15T05:19:23;3.87;;;3.57;;
20159;SDS011;50187;50.492;12.134;2022-11-15T05:22:27;3.97;;;3.67;;
20159;SDS011;50187;50.492;12.134;2022-11-15T05:25:31;4.10;;;3.80;;
20159;SDS011;50187;50.492;12.134;2022-11-15T05:28:35;3.80;;;3.50;;
20159;SDS011;50187;50.492;12.134;2022-11-15T05:31:40;4.07;;;3.77;;
20159;SDS011;50187;50.492;12.134;2022-11-15T05:34:45;4.03;;;3.73;;
20159;SDS011;50187;50.492;12.134;2022-11-15T05:37:49;3.60;;;3.30;;
20159;SDS011;50187;50.492;12.134;2022-11-15T05:40:54;3.67;;;3.47;;
20159;SDS011;50187;50.492;12.134;2022-11-15T05:43:58;4.23;;;3.93;;
20159;SDS011;50187;50.492;12.134;2022-11-15T05:47:04;3.43;;;3.23;;
20159;SDS011;50187;50.492;12.134;2022-11-15T05:50:12;4.13;;;3.83;;
20159;SDS011;50187;50.492;12.134;2022-11-15T05:53:19;3.57;;;3.37;;
20159;SDS011;50187;50.492;12.134;2022-11-15T05:56:26;3.93;;;3.67;;
20159;SDS011;50187;50.492;12.134;2022-11-15T05:59:30;3.47;;;3.27;;
20159;SDS011;50187;50.492;12.134;2022-11-15T06:02:35;3.90;;;3.60;;
20159;SDS011;50187;50.492;12.134;2022-11-15T06:05:39;3.67;;;3.37;;
20159;SDS011;50187;50.492;12.134;2022-11-15T06:08:43;3.33;;;3.13;;
20159;SDS011;50187;50.492;12.134;2022-11-15T06:11:47;3.77;;;3.47;;
20159;SDS011;50187;50.492;12.134;2022-11-15T06:14:52;3.50;;;3.30;;
20159;SDS011;50187;50.492;12.134;2022-11-15T06:17:56;3.67;;;3.37;;
20159;SDS011;50187;50.492;12.134;2022-11-15T06:21:03;3.20;;;3.00;;
20159;SDS011;50187;50.492;12.134;2022-11-15T06:24:08;3.50;;;3.30;;
20159;SDS011;50187;50.492;12.134;2022-11-15T06:27:12;3.73;;;3.43;;
20159;SDS011;50187;50.492;12.134;2022-11-15T06:30:16;3.10;;;2.90;;
20159;SDS011;50187;50.492;12.134;2022-11-15T06:33:20;4.27;;;3.00;;
20159;SDS011;50187;50.492;12.134;2022-11-15T06:36:25;3.60;;;3.40;;
20159;SDS011;50187;50.492;12.134;2022-11-15T06:39:29;3.87;;;3.50;;
20159;SDS011;50187;50.492;12.134;2022-11-15T06:42:33;11.80;;;10.13;;
20159;SDS011;50187;50.492;12.134;2022-11-15T06:45:37;14.93;;;12.30;;
20159;SDS011;50187;50.492;12.134;2022-11-15T06:48:41;12.70;;;10.13;;
20159;SDS011;50187;50.492;12.134;2022-11-15T06:51:45;12.40;;;10.13;;
20159;SDS011;50187;50.492;12.134;2022-11-15T06:54:50;14.77;;;13.30;;
20159;SDS011;50187;50.492;12.134;2022-11-15T06:57:53;17.07;;;15.27;;
20159;SDS011;50187;50.492;12.134;2022-11-15T07:01:05;15.43;;;13.90;;
20159;SDS011;50187;50.492;12.134;2022-11-15T07:04:13;30.97;;;27.63;;
20159;SDS011;50187;50.492;12.134;2022-11-15T07:07:18;51.70;;;41.13;;
20159;SDS011;50187;50.492;12.134;2022-11-15T07:10:22;63.77;;;51.03;;
20159;SDS011;50187;50.492;12.134;2022-11-15T07:13:28;66.23;;;55.40;;
20159;SDS011;50187;50.492;12.134;2022-11-15T07:16:38;87.77;;;67.13;;
20159;SDS011;50187;50.492;12.134;2022-11-15T07:19:42;83.60;;;68.87;;
20159;SDS011;50187;50.492;12.134;2022-11-15T07:22:45;96.60;;;85.97;;
20159;SDS011;50187;50.492;12.134;2022-11-15T07:25:50;117.57;;;99.57;;
20159;SDS011;50187;50.492;12.134;2022-11-15T07:28:54;138.03;;;121.40;;
20159;SDS011;50187;50.492;12.134;2022-11-15T07:31:58;97.70;;;84.57;;
20159;SDS011;50187;50.492;12.134;2022-11-15T07:35:03;91.60;;;81.10;;
20159;SDS011;50187;50.492;12.134;2022-11-15T07:38:07;93.10;;;81.10;;
20159;SDS011;50187;50.492;12.134;2022-11-15T07:41:11;89.53;;;77.50;;
20159;SDS011;50187;50.492;12.134;2022-11-15T07:44:15;93.30;;;80.70;;
20159;SDS011;50187;50.492;12.134;2022-11-15T07:47:19;90.03;;;77.57;;
20159;SDS011;50187;50.492;12.134;2022-11-15T07:50:24;89.70;;;79.87;;
20159;SDS011;50187;50.492;12.134;2022-11-15T07:53:29;92.57;;;78.90;;
20159;SDS011;50187;50.492;12.134;2022-11-15T07:56:33;83.27;;;74.50;;
20159;SDS011;50187;50.492;12.134;2022-11-15T07:59:37;82.77;;;73.87;;
20159;SDS011;50187;50.492;12.134;2022-11-15T08:02:41;79.80;;;71.70;;
20159;SDS011;50187;50.492;12.134;2022-11-15T08:05:49;80.67;;;72.03;;
20159;SDS011;50187;50.492;12.134;2022-11-15T08:08:53;79.77;;;71.57;;
20159;SDS011;50187;50.492;12.134;2022-11-15T08:11:57;76.57;;;68.57;;
20159;SDS011;50187;50.492;12.134;2022-11-15T08:15:01;77.00;;;68.97;;
20159;SDS011;50187;50.492;12.134;2022-11-15T08:18:08;74.90;;;67.33;;
20159;SDS011;50187;50.492;12.134;2022-11-15T08:21:18;75.80;;;68.10;;
20159;SDS011;50187;50.492;12.134;2022-11-15T08:24:23;74.27;;;66.63;;
20159;SDS011;50187;50.492;12.134;2022-11-15T08:27:27;70.03;;;62.77;;
20159;SDS011;50187;50.492;12.134;2022-11-15T08:30:35;69.53;;;62.83;;
20159;SDS011;50187;50.492;12.134;2022-11-15T08:33:42;70.93;;;63.57;;
20159;SDS011;50187;50.492;12.134;2022-11-15T08:36:46;70.00;;;62.90;;
20159;SDS011;50187;50.492;12.134;2022-11-15T08:39:51;68.73;;;61.67;;
20159;SDS011;50187;50.492;12.134;2022-11-15T08:42:55;66.70;;;59.90;;
20159;SDS011;50187;50.492;12.134;2022-11-15T08:45:59;67.30;;;60.47;;
20159;SDS011;50187;50.492;12.134;2022-11-15T08:49:02;63.57;;;57.17;;
20159;SDS011;50187;50.492;12.134;2022-11-15T08:52:06;64.83;;;58.30;;
20159;SDS011;50187;50.492;12.134;2022-11-15T08:55:11;64.43;;;57.63;;
20159;SDS011;50187;50.492;12.134;2022-11-15T08:58:16;63.97;;;57.37;;
20159;SDS011;50187;50.492;12.134;2022-11-15T09:01:20;64.03;;;57.70;;
20159;SDS011;50187;50.492;12.134;2022-11-15T09:04:25;61.13;;;54.90;;
20159;SDS011;50187;50.492;12.134;2022-11-15T09:07:28;59.07;;;53.67;;
20159;SDS011;50187;50.492;12.134;2022-11-15T09:10:34;58.50;;;52.80;;
20159;SDS011;50187;50.492;12.134;2022-11-15T09:13:39;58.00;;;52.53;;
20159;SDS011;50187;50.492;12.134;2022-11-15T09:16:43;52.90;;;47.23;;
20159;SDS011;50187;50.492;12.134;2022-11-15T09:19:47;51.97;;;46.87;;
20159;SDS011;50187;50.492;12.134;2022-11-15T09:22:51;50.07;;;45.23;;
20159;SDS011;50187;50.492;12.134;2022-11-15T09:26:01;48.83;;;44.03;;
20159;SDS011;50187;50.492;12.134;2022-11-15T09:29:07;49.60;;;45.00;;
20159;SDS011;50187;50.492;12.134;2022-11-15T09:32:11;49.47;;;44.50;;
20159;SDS011;50187;50.492;12.134;2022-11-15T09:35:15;49.80;;;45.13;;
20159;SDS011;50187;50.492;12.134;2022-11-15T09:38:20;46.87;;;42.43;;
20159;SDS011;50187;50.492;12.134;2022-11-15T09:41:48;48.97;;;44.20;;
20159;SDS011;50187;50.492;12.134;2022-11-15T09:51:41;43.00;;;39.10;;
20159;SDS011;50187;50.492;12.134;2022-11-15T09:54:34;43.70;;;39.77;;
20159;SDS011;50187;50.492;12.134;2022-11-15T09:57:39;43.97;;;39.80;;
20159;SDS011;50187;50.492;12.134;2022-11-15T10:00:35;42.67;;;38.63;;
20159;SDS011;50187;50.492;12.134;2022-11-15T10:03:36;42.43;;;38.37;;
20159;SDS011;50187;50.492;12.134;2022-11-15T10:06:26;40.07;;;36.33;;
20159;SDS011;50187;50.492;12.134;2022-11-15T10:09:17;39.67;;;35.97;;
20159;SDS011;50187;50.492;12.134;2022-11-15T10:12:08;39.90;;;36.07;;
20159;SDS011;50187;50.492;12.134;2022-11-15T10:15:03;38.93;;;35.40;;
20159;SDS011;50187;50.492;12.134;2022-11-15T10:18:06;39.07;;;35.37;;
20159;SDS011;50187;50.492;12.134;2022-11-15T10:21:00;38.37;;;34.87;;
20159;SDS011;50187;50.492;12.134;2022-11-15T10:24:00;37.50;;;34.20;;
20159;SDS011;50187;50.492;12.134;2022-11-15T10:26:46;37.30;;;33.80;;
20159;SDS011;50187;50.492;12.134;2022-11-15T10:29:32;36.23;;;33.00;;
20159;SDS011;50187;50.492;12.134;2022-11-15T10:32:18;36.33;;;33.00;;
20159;SDS011;50187;50.492;12.134;2022-11-15T10:35:21;36.07;;;32.77;;
20159;SDS011;50187;50.492;12.134;2022-11-15T10:38:11;34.87;;;31.67;;
20159;SDS011;50187;50.492;12.134;2022-11-15T10:41:06;34.33;;;31.23;;
20159;SDS011;50187;50.492;12.134;2022-11-15T10:47:04;33.20;;;30.10;;
20159;SDS011;50187;50.492;12.134;2022-11-15T10:49:59;33.93;;;31.03;;
20159;SDS011;50187;50.492;12.134;2022-11-15T10:52:46;31.87;;;29.07;;
20159;SDS011;50187;50.492;12.134;2022-11-15T10:55:32;34.00;;;30.90;;
20159;SDS011;50187;50.492;12.134;2022-11-15T10:58:27;31.70;;;28.83;;
20159;SDS011;50187;50.492;12.134;2022-11-15T11:01:24;32.50;;;29.67;;
20159;SDS011;50187;50.492;12.134;2022-11-15T11:04:11;31.70;;;28.63;;
20159;SDS011;50187;50.492;12.134;2022-11-15T11:06:59;31.43;;;28.57;;
20159;SDS011;50187;50.492;12.134;2022-11-15T11:09:44;29.50;;;26.80;;
20159;SDS011;50187;50.492;12.134;2022-11-15T11:12:31;29.83;;;27.20;;
20159;SDS011;50187;50.492;12.134;2022-11-15T11:15:17;29.57;;;26.93;;
20159;SDS011;50187;50.492;12.134;2022-11-15T11:20:56;30.03;;;27.37;;
20159;SDS011;50187;50.492;12.134;2022-11-15T11:23:58;28.57;;;26.07;;
20159;SDS011;50187;50.492;12.134;2022-11-15T11:30:06;26.70;;;24.23;;
20159;SDS011;50187;50.492;12.134;2022-11-15T11:38:51;26.17;;;23.97;;
20159;SDS011;50187;50.492;12.134;2022-11-15T11:41:46;26.07;;;23.83;;
20159;SDS011;50187;50.492;12.134;2022-11-15T11:47:56;24.47;;;22.30;;
20159;SDS011;50187;50.492;12.134;2022-11-15T11:50:52;23.87;;;21.77;;
20159;SDS011;50187;50.492;12.134;2022-11-15T11:53:42;24.23;;;21.93;;
20159;SDS011;50187;50.492;12.134;2022-11-15T11:56:37;23.27;;;21.20;;
20159;SDS011;50187;50.492;12.134;2022-11-15T12:02:34;21.90;;;20.07;;
20159;SDS011;50187;50.492;12.134;2022-11-15T12:08:57;21.90;;;20.00;;
20159;SDS011;50187;50.492;12.134;2022-11-15T12:14:47;20.57;;;18.87;;
20159;SDS011;50187;50.492;12.134;2022-11-15T12:17:36;20.57;;;18.83;;
20159;SDS011;50187;50.492;12.134;2022-11-15T12:20:25;19.20;;;17.67;;
20159;SDS011;50187;50.492;12.134;2022-11-15T12:26:08;19.23;;;17.60;;
20159;SDS011;50187;50.492;12.134;2022-11-15T12:29:01;18.73;;;17.10;;
20159;SDS011;50187;50.492;12.134;2022-11-15T12:31:53;17.60;;;16.23;;
20159;SDS011;50187;50.492;12.134;2022-11-15T12:34:46;17.40;;;16.00;;
20159;SDS011;50187;50.492;12.134;2022-11-15T12:40:27;18.93;;;17.27;;
20159;SDS011;50187;50.492;12.134;2022-11-15T12:43:36;19.67;;;17.87;;
20159;SDS011;50187;50.492;12.134;2022-11-15T12:46:58;17.90;;;16.50;;
20159;SDS011;50187;50.492;12.134;2022-11-15T12:52:20;18.03;;;16.53;;
20159;SDS011;50187;50.492;12.134;2022-11-15T12:55:28;17.87;;;16.27;;
20159;SDS011;50187;50.492;12.134;2022-11-15T12:58:38;17.70;;;16.10;;
20159;SDS011;50187;50.492;12.134;2022-11-15T13:07:05;17.40;;;16.00;;
20159;SDS011;50187;50.492;12.134;2022-11-15T13:09:53;16.93;;;15.53;;
20159;SDS011;50187;50.492;12.134;2022-11-15T13:18:35;13.27;;;12.20;;
20159;SDS011;50187;50.492;12.134;2022-11-15T13:21:24;12.00;;;11.03;;
20159;SDS011;50187;50.492;12.134;2022-11-15T13:24:28;13.23;;;12.13;;
20159;SDS011;50187;50.492;12.134;2022-11-15T13:27:18;13.37;;;12.07;;
20159;SDS011;50187;50.492;12.134;2022-11-15T13:30:04;13.87;;;12.37;;
20159;SDS011;50187;50.492;12.134;2022-11-15T13:32:50;18.67;;;16.40;;
20159;SDS011;50187;50.492;12.134;2022-11-15T13:35:38;358.80;;;313.40;;
20159;SDS011;50187;50.492;12.134;2022-11-15T13:44:01;268.57;;;225.90;;
20159;SDS011;50187;50.492;12.134;2022-11-15T13:46:48;179.83;;;146.47;;
20159;SDS011;50187;50.492;12.134;2022-11-15T13:50:12;112.70;;;92.93;;
20159;SDS011;50187;50.492;12.134;2022-11-15T13:52:58;182.57;;;146.03;;
20159;SDS011;50187;50.492;12.134;2022-11-15T13:55:46;513.23;;;415.17;;
20159;SDS011;50187;50.492;12.134;2022-11-15T13:58:32;534.93;;;438.03;;
20159;SDS011;50187;50.492;12.134;2022-11-15T14:01:19;514.40;;;425.00;;
20159;SDS011;50187;50.492;12.134;2022-11-15T14:04:10;362.87;;;288.27;;
20159;SDS011;50187;50.492;12.134;2022-11-15T14:06:58;307.47;;;241.20;;
20159;SDS011;50187;50.492;12.134;2022-11-15T14:09:46;427.27;;;337.47;;
20159;SDS011;50187;50.492;12.134;2022-11-15T14:12:33;601.90;;;500.37;;
20159;SDS011;50187;50.492;12.134;2022-11-15T14:15:27;438.77;;;367.53;;
20159;SDS011;50187;50.492;12.134;2022-11-15T14:18:38;370.30;;;307.93;;
20159;SDS011;50187;50.492;12.134;2022-11-15T14:21:29;393.30;;;339.00;;
20159;SDS011;50187;50.492;12.134;2022-11-15T14:24:15;422.80;;;375.97;;
20159;SDS011;50187;50.492;12.134;2022-11-15T14:27:20;447.13;;;398.33;;
20159;SDS011;50187;50.492;12.134;2022-11-15T14:30:17;345.77;;;308.40;;
20159;SDS011;50187;50.492;12.134;2022-11-15T14:33:11;373.13;;;331.87;;
20159;SDS011;50187;50.492;12.134;2022-11-15T14:38:59;311.13;;;266.80;;
20159;SDS011;50187;50.492;12.134;2022-11-15T14:41:46;281.40;;;238.63;;
20159;SDS011;50187;50.492;12.134;2022-11-15T14:44:31;331.70;;;268.10;;
20159;SDS011;50187;50.492;12.134;2022-11-15T14:47:16;378.33;;;318.63;;
20159;SDS011;50187;50.492;12.134;2022-11-15T14:50:01;323.57;;;265.60;;
20159;SDS011;50187;50.492;12.134;2022-11-15T14:52:47;296.97;;;243.10;;
20159;SDS011;50187;50.492;12.134;2022-11-15T14:55:34;375.30;;;310.97;;
20159;SDS011;50187;50.492;12.134;2022-11-15T14:58:21;438.40;;;381.57;;
20159;SDS011;50187;50.492;12.134;2022-11-15T15:01:23;421.50;;;375.83;;
20159;SDS011;50187;50.492;12.134;2022-11-15T15:04:10;408.07;;;364.00;;
20159;SDS011;50187;50.492;12.134;2022-11-15T15:06:55;365.73;;;325.73;;
20159;SDS011;50187;50.492;12.134;2022-11-15T15:09:41;306.83;;;272.77;;
20159;SDS011;50187;50.492;12.134;2022-11-15T15:12:27;352.40;;;302.57;;
20159;SDS011;50187;50.492;12.134;2022-11-15T15:15:16;311.20;;;271.60;;
20159;SDS011;50187;50.492;12.134;2022-11-15T15:18:06;281.17;;;240.73;;
20159;SDS011;50187;50.492;12.134;2022-11-15T15:20:54;228.50;;;192.70;;
20159;SDS011;50187;50.492;12.134;2022-11-15T15:23:52;213.47;;;172.90;;
20159;SDS011;50187;50.492;12.134;2022-11-15T15:26:39;202.23;;;163.00;;
20159;SDS011;50187;50.492;12.134;2022-11-15T15:29:24;195.30;;;162.17;;
20159;SDS011;50187;50.492;12.134;2022-11-15T15:32:10;188.73;;;156.33;;
20159;SDS011;50187;50.492;12.134;2022-11-15T15:34:56;169.13;;;139.97;;
20159;SDS011;50187;50.492;12.134;2022-11-15T15:37:43;149.67;;;123.30;;
20159;SDS011;50187;50.492;12.134;2022-11-15T15:40:30;146.00;;;117.13;;
20159;SDS011;50187;50.492;12.134;2022-11-15T15:43:17;121.30;;;101.87;;
20159;SDS011;50187;50.492;12.134;2022-11-15T15:46:02;129.60;;;107.80;;
20159;SDS011;50187;50.492;12.134;2022-11-15T15:48:47;132.83;;;110.37;;
20159;SDS011;50187;50.492;12.134;2022-11-15T15:51:32;122.43;;;93.87;;
20159;SDS011;50187;50.492;12.134;2022-11-15T15:54:17;112.47;;;95.27;;
20159;SDS011;50187;50.492;12.134;2022-11-15T15:57:03;112.43;;;93.67;;
20159;SDS011;50187;50.492;12.134;2022-11-15T15:59:49;119.97;;;95.40;;
20159;SDS011;50187;50.492;12.134;2022-11-15T16:02:34;123.47;;;96.47;;
20159;SDS011;50187;50.492;12.134;2022-11-15T16:05:24;151.00;;;113.53;;
20159;SDS011;50187;50.492;12.134;2022-11-15T16:08:20;257.20;;;172.90;;
20159;SDS011;50187;50.492;12.134;2022-11-15T16:11:07;142.13;;;108.97;;
20159;SDS011;50187;50.492;12.134;2022-11-15T16:13:54;114.23;;;90.93;;
20159;SDS011;50187;50.492;12.134;2022-11-15T16:16:39;118.20;;;95.13;;
20159;SDS011;50187;50.492;12.134;2022-11-15T16:19:24;113.97;;;93.23;;
20159;SDS011;50187;50.492;12.134;2022-11-15T16:22:09;102.27;;;86.53;;
20159;SDS011;50187;50.492;12.134;2022-11-15T16:24:55;92.10;;;81.70;;
20159;SDS011;50187;50.492;12.134;2022-11-15T16:27:40;121.60;;;97.17;;
20159;SDS011;50187;50.492;12.134;2022-11-15T16:30:29;204.83;;;150.70;;
20159;SDS011;50187;50.492;12.134;2022-11-15T16:33:14;260.23;;;194.63;;
20159;SDS011;50187;50.492;12.134;2022-11-15T16:36:03;309.00;;;228.73;;
20159;SDS011;50187;50.492;12.134;2022-11-15T16:38:50;310.90;;;230.40;;
20159;SDS011;50187;50.492;12.134;2022-11-15T16:41:35;356.03;;;244.53;;
20159;SDS011;50187;50.492;12.134;2022-11-15T16:44:20;295.83;;;209.67;;
20159;SDS011;50187;50.492;12.134;2022-11-15T16:47:16;261.37;;;172.93;;
20159;SDS011;50187;50.492;12.134;2022-11-15T16:50:04;226.20;;;146.20;;
20159;SDS011;50187;50.492;12.134;2022-11-15T16:52:53;198.00;;;125.80;;
20159;SDS011;50187;50.492;12.134;2022-11-15T16:55:40;173.97;;;115.63;;
20159;SDS011;50187;50.492;12.134;2022-11-15T16:58:25;168.63;;;104.90;;
20159;SDS011;50187;50.492;12.134;2022-11-15T17:01:18;174.00;;;107.67;;
20159;SDS011;50187;50.492;12.134;2022-11-15T17:04:20;162.73;;;101.70;;
20159;SDS011;50187;50.492;12.134;2022-11-15T17:07:11;150.03;;;96.10;;
20159;SDS011;50187;50.492;12.134;2022-11-15T17:09:58;126.47;;;82.50;;
20159;SDS011;50187;50.492;12.134;2022-11-15T17:12:44;121.10;;;79.97;;
20159;SDS011;50187;50.492;12.134;2022-11-15T17:15:29;115.57;;;74.83;;
20159;SDS011;50187;50.492;12.134;2022-11-15T17:18:14;95.27;;;65.00;;
20159;SDS011;50187;50.492;12.134;2022-11-15T17:21:04;89.47;;;57.77;;
20159;SDS011;50187;50.492;12.134;2022-11-15T17:23:52;83.47;;;54.70;;
20159;SDS011;50187;50.492;12.134;2022-11-15T17:26:37;78.43;;;49.73;;
20159;SDS011;50187;50.492;12.134;2022-11-15T17:29:25;72.30;;;47.57;;
20159;SDS011;50187;50.492;12.134;2022-11-15T17:32:10;69.80;;;44.43;;
20159;SDS011;50187;50.492;12.134;2022-11-15T17:34:55;243.47;;;128.17;;
20159;SDS011;50187;50.492;12.134;2022-11-15T17:37:40;127.80;;;81.17;;
20159;SDS011;50187;50.492;12.134;2022-11-15T17:40:26;93.97;;;56.73;;
20159;SDS011;50187;50.492;12.134;2022-11-15T17:43:11;80.80;;;50.37;;
20159;SDS011;50187;50.492;12.134;2022-11-15T17:45:57;78.67;;;50.70;;
20159;SDS011;50187;50.492;12.134;2022-11-15T17:48:44;84.10;;;52.73;;
20159;SDS011;50187;50.492;12.134;2022-11-15T17:51:32;82.17;;;54.07;;
20159;SDS011;50187;50.492;12.134;2022-11-15T17:54:18;81.07;;;56.50;;
20159;SDS011;50187;50.492;12.134;2022-11-15T17:57:04;80.17;;;61.40;;
20159;SDS011;50187;50.492;12.134;2022-11-15T17:59:53;81.83;;;61.87;;
20159;SDS011;50187;50.492;12.134;2022-11-15T18:02:43;84.70;;;60.20;;
20159;SDS011;50187;50.492;12.134;2022-11-15T18:05:27;91.57;;;69.57;;
20159;SDS011;50187;50.492;12.134;2022-11-15T18:08:13;96.20;;;75.70;;
20159;SDS011;50187;50.492;12.134;2022-11-15T18:11:08;94.23;;;75.17;;
20159;SDS011;50187;50.492;12.134;2022-11-15T18:13:57;92.80;;;75.20;;
20159;SDS011;50187;50.492;12.134;2022-11-15T18:16:44;90.47;;;77.97;;
20159;SDS011;50187;50.492;12.134;2022-11-15T18:19:29;104.87;;;83.40;;
20159;SDS011;50187;50.492;12.134;2022-11-15T18:22:15;95.03;;;82.70;;
20159;SDS011;50187;50.492;12.134;2022-11-15T18:25:01;103.37;;;85.77;;
20159;SDS011;50187;50.492;12.134;2022-11-15T18:27:49;114.70;;;91.30;;
20159;SDS011;50187;50.492;12.134;2022-11-15T18:30:39;115.20;;;102.63;;
20159;SDS011;50187;50.492;12.134;2022-11-15T18:33:25;134.20;;;110.30;;
20159;SDS011;50187;50.492;12.134;2022-11-15T18:36:13;140.77;;;119.53;;
20159;SDS011;50187;50.492;12.134;2022-11-15T18:39:01;121.13;;;105.00;;
20159;SDS011;50187;50.492;12.134;2022-11-15T18:41:48;117.50;;;96.90;;
20159;SDS011;50187;50.492;12.134;2022-11-15T18:44:34;97.87;;;85.17;;
20159;SDS011;50187;50.492;12.134;2022-11-15T18:47:20;99.33;;;78.50;;
20159;SDS011;50187;50.492;12.134;2022-11-15T18:50:05;103.60;;;72.77;;